sensor_id;sensor_type;location;lat;lon;timestamp;pressure;altitude;pressure_sealevel;temperature;humidity
16355;BME280;8287;51.644;8.494;2023-01-01T00:01:06;99853.19;;;18.51;49.43
16355;BME280;8287;51.644;8.494;2023-01-01T00:03:34;99846.25;;;18.47;49.51
16355;BME280;8287;51.644;8.494;2023-01-01T00:06:04;99850.94;;;18.53;49.71
16355;BME280;8287;51.644;8.494;2023-01-01T00:08:31;99852.56;;;18.61;49.54
16355;BME280;8287;51.644;8.494;2023-01-01T00:10:59;99841.00;;;18.57;49.67
16355;BME280;8287;51.644;8.494;2023-01-01T00:13:26;99840.63;;;18.59;49.67
16355;BME280;8287;51.644;8.494;2023-01-01T00:15:52;99839.50;;;18.60;49.22
16355;BME280;8287;51.644;8.494;2023-01-01T00:18:19;99850.88;;;18.50;49.93
16355;BME280;8287;51.644;8.494;2023-01-01T00:20:47;99846.44;;;18.64;49.77
16355;BME280;8287;51.644;8.494;2023-01-01T00:23:14;99844.41;;;18.54;50.06
16355;BME280;8287;51.644;8.494;2023-01-01T00:25:40;99846.41;;;18.61;49.67
16355;BME280;8287;51.644;8.494;2023-01-01T00:28:07;99853.66;;;18.57;49.58
16355;BME280;8287;51.644;8.494;2023-01-01T00:30:34;99848.34;;;18.64;49.31
16355;BME280;8287;51.644;8.494;2023-01-01T00:33:00;99849.47;;;18.63;48.60
16355;BME280;8287;51.644;8.494;2023-01-01T00:35:27;99855.63;;;18.63;49.16
16355;BME280;8287;51.644;8.494;2023-01-01T00:37:55;99864.16;;;18.72;48.54
16355;BME280;8287;51.644;8.494;2023-01-01T00:40:22;99864.03;;;18.62;49.03
16355;BME280;8287;51.644;8.494;2023-01-01T00:42:49;99859.84;;;18.64;48.63
16355;BME280;8287;51.644;8.494;2023-01-01T00:45:15;99859.88;;;18.68;48.37
16355;BME280;8287;51.644;8.494;2023-01-01T00:47:42;99859.94;;;18.71;48.68
16355;BME280;8287;51.644;8.494;2023-01-01T00:50:08;99860.66;;;18.68;47.90
16355;BME280;8287;51.644;8.494;2023-01-01T00:52:35;99862.22;;;18.73;48.52
16355;BME280;8287;51.644;8.494;2023-01-01T00:55:03;99868.03;;;18.75;48.14
16355;BME280;8287;51.644;8.494;2023-01-01T00:57:30;99872.16;;;18.69;48.12
16355;BME280;8287;51.644;8.494;2023-01-01T00:59:56;99868.34;;;18.70;48.27
16355;BME280;8287;51.644;8.494;2023-01-01T01:02:23;99852.66;;;18.75;47.85
16355;BME280;8287;51.644;8.494;2023-01-01T01:04:49;99848.38;;;18.67;48.19
16355;BME280;8287;51.644;8.494;2023-01-01T01:07:16;99848.59;;;18.52;48.21
16355;BME280;8287;51.644;8.494;2023-01-01T01:09:42;99854.13;;;18.66;48.40
16355;BME280;8287;51.644;8.494;2023-01-01T01:12:10;99857.22;;;18.68;48.48
16355;BME280;8287;51.644;8.494;2023-01-01T01:14:37;99851.91;;;18.75;47.89
16355;BME280;8287;51.644;8.494;2023-01-01T01:17:03;99845.00;;;18.74;47.55
16355;BME280;8287;51.644;8.494;2023-01-01T01:19:30;99839.84;;;18.58;47.78
16355;BME280;8287;51.644;8.494;2023-01-01T01:21:56;99845.00;;;18.77;46.94
16355;BME280;8287;51.644;8.494;2023-01-01T01:24:23;99841.97;;;18.79;47.08
16355;BME280;8287;51.644;8.494;2023-01-01T01:26:51;99865.34;;;18.75;46.92
16355;BME280;8287;51.644;8.494;2023-01-01T01:29:19;99854.53;;;18.68;47.07
16355;BME280;8287;51.644;8.494;2023-01-01T01:31:46;99859.88;;;18.68;47.05
16355;BME280;8287;51.644;8.494;2023-01-01T01:34:12;99875.63;;;18.69;46.84
16355;BME280;8287;51.644;8.494;2023-01-01T01:36:40;99869.81;;;18.64;46.72
16355;BME280;8287;51.644;8.494;2023-01-01T01:39:09;99868.25;;;18.63;47.06
16355;BME280;8287;51.644;8.494;2023-01-01T01:41:36;99882.47;;;18.63;47.46
16355;BME280;8287;51.644;8.494;2023-01-01T01:44:52;99874.28;;;18.53;47.98
16355;BME280;8287;51.644;8.494;2023-01-01T01:47:01;99864.97;;;18.43;47.58
16355;BME280;8287;51.644;8.494;2023-01-01T01:49:31;99883.31;;;18.38;47.52
16355;BME280;8287;51.644;8.494;2023-01-01T01:51:58;99884.69;;;18.25;48.02
16355;BME280;8287;51.644;8.494;2023-01-01T01:54:26;99890.84;;;18.29;48.37
16355;BME280;8287;51.644;8.494;2023-01-01T01:56:55;99885.41;;;18.22;47.94
16355;BME280;8287;51.644;8.494;2023-01-01T01:59:27;99908.22;;;18.09;48.69
16355;BME280;8287;51.644;8.494;2023-01-01T02:01:57;99887.97;;;18.11;48.28
16355;BME280;8287;51.644;8.494;2023-01-01T02:04:24;99896.72;;;18.08;48.04
16355;BME280;8287;51.644;8.494;2023-01-01T02:06:51;99902.09;;;18.08;47.71
16355;BME280;8287;51.644;8.494;2023-01-01T02:09:18;99906.69;;;18.08;48.53
16355;BME280;8287;51.644;8.494;2023-01-01T02:11:45;99907.44;;;18.08;47.80
16355;BME280;8287;51.644;8.494;2023-01-01T02:14:12;99911.22;;;18.04;47.82
16355;BME280;8287;51.644;8.494;2023-01-01T02:16:42;99905.16;;;18.07;47.79
16355;BME280;8287;51.644;8.494;2023-01-01T02:19:17;99897.72;;;17.97;48.47
16355;BME280;8287;51.644;8.494;2023-01-01T02:21:58;99896.63;;;18.01;48.26
16355;BME280;8287;51.644;8.494;2023-01-01T02:24:47;99901.22;;;18.01;47.83
16355;BME280;8287;51.644;8.494;2023-01-01T02:27:23;99897.66;;;17.93;48.08
16355;BME280;8287;51.644;8.494;2023-01-01T02:29:57;99912.16;;;17.89;48.15
16355;BME280;8287;51.644;8.494;2023-01-01T02:32:28;99891.44;;;17.86;47.84
16355;BME280;8287;51.644;8.494;2023-01-01T02:34:59;99909.47;;;17.89;48.01
16355;BME280;8287;51.644;8.494;2023-01-01T02:37:50;99913.25;;;17.84;47.68
16355;BME280;8287;51.644;8.494;2023-01-01T02:40:19;99914.94;;;17.96;47.51
16355;BME280;8287;51.644;8.494;2023-01-01T02:42:48;99919.78;;;17.87;47.95
16355;BME280;8287;51.644;8.494;2023-01-01T02:45:17;99927.59;;;17.95;48.10
16355;BME280;8287;51.644;8.494;2023-01-01T02:47:44;99934.38;;;17.89;47.51
16355;BME280;8287;51.644;8.494;2023-01-01T02:50:13;99922.00;;;17.81;48.40
16355;BME280;8287;51.644;8.494;2023-01-01T02:52:59;99920.00;;;17.75;48.35
16355;BME280;8287;51.644;8.494;2023-01-01T02:55:34;99915.78;;;17.74;48.05
16355;BME280;8287;51.644;8.494;2023-01-01T02:58:06;99913.47;;;17.72;47.75
16355;BME280;8287;51.644;8.494;2023-01-01T03:00:59;99920.88;;;17.56;47.63
16355;BME280;8287;51.644;8.494;2023-01-01T03:03:37;99911.03;;;17.64;47.90
16355;BME280;8287;51.644;8.494;2023-01-01T03:06:07;99909.13;;;17.64;47.43
16355;BME280;8287;51.644;8.494;2023-01-01T03:08:51;99908.97;;;17.54;47.40
16355;BME280;8287;51.644;8.494;2023-01-01T03:11:22;99919.63;;;17.50;47.30
16355;BME280;8287;51.644;8.494;2023-01-01T03:13:54;99899.03;;;17.54;47.43
16355;BME280;8287;51.644;8.494;2023-01-01T03:16:28;99907.75;;;17.48;47.46
16355;BME280;8287;51.644;8.494;2023-01-01T03:19:00;99897.72;;;17.45;47.67
16355;BME280;8287;51.644;8.494;2023-01-01T03:21:41;99908.22;;;17.53;47.42
16355;BME280;8287;51.644;8.494;2023-01-01T03:24:12;99891.34;;;17.53;47.72
16355;BME280;8287;51.644;8.494;2023-01-01T03:26:42;99907.78;;;17.51;47.63
16355;BME280;8287;51.644;8.494;2023-01-01T03:29:11;99890.06;;;17.43;47.40
16355;BME280;8287;51.644;8.494;2023-01-01T03:31:41;99899.59;;;17.41;47.35
16355;BME280;8287;51.644;8.494;2023-01-01T03:34:13;99910.25;;;17.37;48.10
16355;BME280;8287;51.644;8.494;2023-01-01T03:36:43;99925.75;;;17.51;47.74
16355;BME280;8287;51.644;8.494;2023-01-01T03:39:12;99929.88;;;17.45;47.65
16355;BME280;8287;51.644;8.494;2023-01-01T03:41:43;99917.44;;;17.56;47.51
16355;BME280;8287;51.644;8.494;2023-01-01T03:44:16;99908.50;;;17.48;47.55
16355;BME280;8287;51.644;8.494;2023-01-01T03:46:45;99908.97;;;17.54;48.04
16355;BME280;8287;51.644;8.494;2023-01-01T03:49:12;99935.34;;;17.52;47.51
16355;BME280;8287;51.644;8.494;2023-01-01T03:51:59;99928.03;;;17.49;47.97
16355;BME280;8287;51.644;8.494;2023-01-01T03:54:35;99926.16;;;17.53;47.70
16355;BME280;8287;51.644;8.494;2023-01-01T03:57:09;99927.66;;;17.50;48.33
16355;BME280;8287;51.644;8.494;2023-01-01T03:59:42;99929.94;;;17.48;48.27
16355;BME280;8287;51.644;8.494;2023-01-01T04:02:13;99926.69;;;17.62;47.95
16355;BME280;8287;51.644;8.494;2023-01-01T04:04:42;99921.16;;;17.74;47.74
16355;BME280;8287;51.644;8.494;2023-01-01T04:07:09;99924.84;;;17.66;47.95
16355;BME280;8287;51.644;8.494;2023-01-01T04:09:37;99922.78;;;17.56;48.18
16355;BME280;8287;51.644;8.494;2023-01-01T04:12:06;99925.94;;;17.61;48.58
16355;BME280;8287;51.644;8.494;2023-01-01T04:14:35;99919.16;;;17.45;48.69
16355;BME280;8287;51.644;8.494;2023-01-01T04:17:03;99921.72;;;17.38;48.89
16355;BME280;8287;51.644;8.494;2023-01-01T04:19:32;99914.59;;;17.45;48.86
16355;BME280;8287;51.644;8.494;2023-01-01T04:21:59;99917.72;;;17.51;48.77
16355;BME280;8287;51.644;8.494;2023-01-01T04:24:26;99929.75;;;17.38;48.72
16355;BME280;8287;51.644;8.494;2023-01-01T04:26:53;99947.97;;;17.51;48.85
16355;BME280;8287;51.644;8.494;2023-01-01T04:29:20;99933.41;;;17.49;48.62
16355;BME280;8287;51.644;8.494;2023-01-01T04:31:47;99943.09;;;17.57;48.64
16355;BME280;8287;51.644;8.494;2023-01-01T04:34:15;99940.81;;;17.59;48.26
16355;BME280;8287;51.644;8.494;2023-01-01T04:36:43;99952.03;;;17.42;48.89
16355;BME280;8287;51.644;8.494;2023-01-01T04:39:09;99956.28;;;17.24;49.11
16355;BME280;8287;51.644;8.494;2023-01-01T04:41:36;99946.19;;;17.59;48.68
16355;BME280;8287;51.644;8.494;2023-01-01T04:44:03;99945.50;;;17.65;48.34
16355;BME280;8287;51.644;8.494;2023-01-01T04:46:29;99960.06;;;17.42;48.77
16355;BME280;8287;51.644;8.494;2023-01-01T04:48:56;99976.47;;;17.40;49.17
16355;BME280;8287;51.644;8.494;2023-01-01T04:51:23;99960.69;;;17.35;49.30
16355;BME280;8287;51.644;8.494;2023-01-01T04:53:51;99969.59;;;17.39;49.30
16355;BME280;8287;51.644;8.494;2023-01-01T04:56:19;99981.28;;;17.54;49.17
16355;BME280;8287;51.644;8.494;2023-01-01T04:58:46;99985.84;;;17.50;48.83
16355;BME280;8287;51.644;8.494;2023-01-01T05:01:14;99980.28;;;17.39;49.68
16355;BME280;8287;51.644;8.494;2023-01-01T05:03:41;99991.88;;;17.47;49.15
16355;BME280;8287;51.644;8.494;2023-01-01T05:06:10;99982.63;;;17.41;49.13
16355;BME280;8287;51.644;8.494;2023-01-01T05:08:39;99977.41;;;17.48;49.61
16355;BME280;8287;51.644;8.494;2023-01-01T05:11:09;99983.53;;;17.29;49.70
16355;BME280;8287;51.644;8.494;2023-01-01T05:13:37;99970.72;;;17.38;49.87
16355;BME280;8287;51.644;8.494;2023-01-01T05:16:06;99976.13;;;17.42;49.79
16355;BME280;8287;51.644;8.494;2023-01-01T05:18:33;99967.75;;;17.43;49.99
16355;BME280;8287;51.644;8.494;2023-01-01T05:21:00;99985.09;;;17.53;49.49
16355;BME280;8287;51.644;8.494;2023-01-01T05:23:27;99987.25;;;17.44;50.02
16355;BME280;8287;51.644;8.494;2023-01-01T05:25:53;99991.47;;;17.45;49.91
16355;BME280;8287;51.644;8.494;2023-01-01T05:28:22;99994.88;;;17.42;49.46
16355;BME280;8287;51.644;8.494;2023-01-01T05:30:49;99995.81;;;17.53;49.85
16355;BME280;8287;51.644;8.494;2023-01-01T05:33:15;99994.31;;;17.33;49.73
16355;BME280;8287;51.644;8.494;2023-01-01T05:35:42;100003.63;;;17.39;50.00
16355;BME280;8287;51.644;8.494;2023-01-01T05:38:09;100006.34;;;17.42;49.93
16355;BME280;8287;51.644;8.494;2023-01-01T05:40:37;100003.41;;;17.47;49.90
16355;BME280;8287;51.644;8.494;2023-01-01T05:43:05;100010.59;;;17.43;50.10
16355;BME280;8287;51.644;8.494;2023-01-01T05:45:33;100010.28;;;17.48;50.45
16355;BME280;8287;51.644;8.494;2023-01-01T05:47:59;100009.81;;;17.43;50.56
16355;BME280;8287;51.644;8.494;2023-01-01T05:50:27;100005.19;;;17.40;50.77
16355;BME280;8287;51.644;8.494;2023-01-01T05:52:53;100008.41;;;17.30;51.54
16355;BME280;8287;51.644;8.494;2023-01-01T05:55:20;100011.25;;;17.37;51.35
16355;BME280;8287;51.644;8.494;2023-01-01T05:57:46;100008.41;;;17.30;51.42
16355;BME280;8287;51.644;8.494;2023-01-01T06:00:14;100011.38;;;17.25;51.76
16355;BME280;8287;51.644;8.494;2023-01-01T06:02:42;100017.94;;;17.27;51.52
16355;BME280;8287;51.644;8.494;2023-01-01T06:05:08;100027.25;;;17.14;52.12
16355;BME280;8287;51.644;8.494;2023-01-01T06:07:35;100038.81;;;17.18;52.22
16355;BME280;8287;51.644;8.494;2023-01-01T06:10:02;100039.38;;;17.27;52.21
16355;BME280;8287;51.644;8.494;2023-01-01T06:12:28;100043.78;;;17.20;52.23
16355;BME280;8287;51.644;8.494;2023-01-01T06:14:55;100039.66;;;17.22;51.92
16355;BME280;8287;51.644;8.494;2023-01-01T06:17:21;100045.78;;;17.23;51.92
16355;BME280;8287;51.644;8.494;2023-01-01T06:19:49;100036.34;;;17.10;51.80
16355;BME280;8287;51.644;8.494;2023-01-01T06:22:16;100041.13;;;17.20;52.38
16355;BME280;8287;51.644;8.494;2023-01-01T06:24:42;100061.88;;;17.26;52.29
16355;BME280;8287;51.644;8.494;2023-01-01T06:27:09;100056.53;;;17.26;52.26
16355;BME280;8287;51.644;8.494;2023-01-01T06:29:35;100045.66;;;17.16;52.48
16355;BME280;8287;51.644;8.494;2023-01-01T06:32:02;100057.91;;;17.17;52.43
16355;BME280;8287;51.644;8.494;2023-01-01T06:34:29;100054.66;;;17.08;52.58
16355;BME280;8287;51.644;8.494;2023-01-01T06:36:56;100068.75;;;17.05;52.87
16355;BME280;8287;51.644;8.494;2023-01-01T06:39:23;100070.03;;;17.11;53.07
16355;BME280;8287;51.644;8.494;2023-01-01T06:41:50;100080.50;;;17.00;53.54
16355;BME280;8287;51.644;8.494;2023-01-01T06:44:16;100092.75;;;16.82;53.78
16355;BME280;8287;51.644;8.494;2023-01-01T06:46:43;100093.31;;;16.91;53.57
16355;BME280;8287;51.644;8.494;2023-01-01T06:49:10;100102.28;;;16.99;53.73
16355;BME280;8287;51.644;8.494;2023-01-01T06:51:38;100104.19;;;16.98;53.75
16355;BME280;8287;51.644;8.494;2023-01-01T06:54:07;100100.69;;;16.94;54.14
16355;BME280;8287;51.644;8.494;2023-01-01T06:56:34;100121.16;;;16.87;54.43
16355;BME280;8287;51.644;8.494;2023-01-01T06:59:01;100114.25;;;16.86;54.48
16355;BME280;8287;51.644;8.494;2023-01-01T07:01:30;100117.63;;;16.83;54.45
16355;BME280;8287;51.644;8.494;2023-01-01T07:03:58;100125.16;;;16.77;54.58
16355;BME280;8287;51.644;8.494;2023-01-01T07:06:27;100120.84;;;16.73;54.59
16355;BME280;8287;51.644;8.494;2023-01-01T07:08:54;100118.31;;;16.80;54.16
16355;BME280;8287;51.644;8.494;2023-01-01T07:11:22;100117.72;;;16.86;53.67
16355;BME280;8287;51.644;8.494;2023-01-01T07:13:49;100121.59;;;16.89;53.65
16355;BME280;8287;51.644;8.494;2023-01-01T07:16:16;100115.22;;;16.78;54.65
16355;BME280;8287;51.644;8.494;2023-01-01T07:18:42;100107.69;;;16.83;54.58
16355;BME280;8287;51.644;8.494;2023-01-01T07:21:24;100129.31;;;16.94;54.45
16355;BME280;8287;51.644;8.494;2023-01-01T07:23:51;100134.97;;;16.89;54.89
16355;BME280;8287;51.644;8.494;2023-01-01T07:26:22;100143.38;;;16.72;54.78
16355;BME280;8287;51.644;8.494;2023-01-01T07:28:48;100142.84;;;16.82;54.47
16355;BME280;8287;51.644;8.494;2023-01-01T07:31:15;100135.00;;;16.73;55.04
16355;BME280;8287;51.644;8.494;2023-01-01T07:33:41;100143.91;;;16.77;54.19
16355;BME280;8287;51.644;8.494;2023-01-01T07:36:08;100149.25;;;16.77;54.20
16355;BME280;8287;51.644;8.494;2023-01-01T07:38:35;100152.00;;;16.81;54.47
16355;BME280;8287;51.644;8.494;2023-01-01T07:41:01;100159.13;;;16.92;54.11
16355;BME280;8287;51.644;8.494;2023-01-01T07:43:29;100154.69;;;17.00;53.61
16355;BME280;8287;51.644;8.494;2023-01-01T07:45:56;100156.81;;;16.91;54.31
16355;BME280;8287;51.644;8.494;2023-01-01T07:48:23;100158.50;;;16.99;53.54
16355;BME280;8287;51.644;8.494;2023-01-01T07:50:50;100167.03;;;17.04;53.57
16355;BME280;8287;51.644;8.494;2023-01-01T07:53:16;100162.66;;;16.96;53.27
16355;BME280;8287;51.644;8.494;2023-01-01T07:55:43;100168.00;;;16.96;53.57
16355;BME280;8287;51.644;8.494;2023-01-01T07:58:11;100159.72;;;17.01;53.13
16355;BME280;8287;51.644;8.494;2023-01-01T08:00:39;100159.72;;;17.01;53.35
16355;BME280;8287;51.644;8.494;2023-01-01T08:03:06;100159.41;;;16.87;54.45
16355;BME280;8287;51.644;8.494;2023-01-01T08:05:32;100167.28;;;16.80;54.74
16355;BME280;8287;51.644;8.494;2023-01-01T08:08:00;100159.75;;;16.86;54.80
16355;BME280;8287;51.644;8.494;2023-01-01T08:10:26;100170.38;;;16.82;54.77
16355;BME280;8287;51.644;8.494;2023-01-01T08:12:58;100174.34;;;16.88;55.00
16355;BME280;8287;51.644;8.494;2023-01-01T08:15:24;100179.69;;;16.88;55.14
16355;BME280;8287;51.644;8.494;2023-01-01T08:17:56;100191.59;;;16.91;55.65
16355;BME280;8287;51.644;8.494;2023-01-01T08:20:23;100197.75;;;16.76;55.78
16355;BME280;8287;51.644;8.494;2023-01-01T08:22:49;100200.16;;;16.81;56.03
16355;BME280;8287;51.644;8.494;2023-01-01T08:25:16;100195.25;;;16.83;56.05
16355;BME280;8287;51.644;8.494;2023-01-01T08:27:43;100204.66;;;16.77;56.31
16355;BME280;8287;51.644;8.494;2023-01-01T08:30:11;100203.53;;;16.63;56.67
16355;BME280;8287;51.644;8.494;2023-01-01T08:32:37;100217.69;;;16.78;55.95
16355;BME280;8287;51.644;8.494;2023-01-01T08:35:06;100224.25;;;16.66;56.61
16355;BME280;8287;51.644;8.494;2023-01-01T08:37:33;100234.09;;;16.62;56.64
16355;BME280;8287;51.644;8.494;2023-01-01T08:39:59;100232.69;;;16.67;56.52
16355;BME280;8287;51.644;8.494;2023-01-01T08:42:26;100236.75;;;16.77;56.86
16355;BME280;8287;51.644;8.494;2023-01-01T08:44:52;100234.78;;;16.74;57.12
16355;BME280;8287;51.644;8.494;2023-01-01T08:47:21;100232.19;;;16.77;56.76
16355;BME280;8287;51.644;8.494;2023-01-01T08:49:48;100247.22;;;16.82;56.72
16355;BME280;8287;51.644;8.494;2023-01-01T08:52:18;100257.13;;;16.81;56.96
16355;BME280;8287;51.644;8.494;2023-01-01T08:54:45;100264.22;;;16.74;57.30
16355;BME280;8287;51.644;8.494;2023-01-01T08:57:12;100252.91;;;16.80;57.19
16355;BME280;8287;51.644;8.494;2023-01-01T08:59:38;100248.84;;;16.86;56.78
16355;BME280;8287;51.644;8.494;2023-01-01T09:02:05;100261.97;;;16.76;56.95
16355;BME280;8287;51.644;8.494;2023-01-01T09:04:32;100260.50;;;16.78;57.62
16355;BME280;8287;51.644;8.494;2023-01-01T09:06:58;100263.25;;;16.67;57.63
16355;BME280;8287;51.644;8.494;2023-01-01T09:09:26;100262.41;;;16.78;57.92
16355;BME280;8287;51.644;8.494;2023-01-01T09:11:54;100265.94;;;16.82;57.58
16355;BME280;8287;51.644;8.494;2023-01-01T09:14:21;100262.50;;;16.66;58.10
16355;BME280;8287;51.644;8.494;2023-01-01T09:16:48;100266.81;;;16.71;57.65
16355;BME280;8287;51.644;8.494;2023-01-01T09:19:14;100273.53;;;16.80;57.81
16355;BME280;8287;51.644;8.494;2023-01-01T09:21:41;100280.59;;;16.88;57.59
16355;BME280;8287;51.644;8.494;2023-01-01T09:24:08;100283.81;;;16.78;57.88
16355;BME280;8287;51.644;8.494;2023-01-01T09:26:35;100298.03;;;16.67;58.22
16355;BME280;8287;51.644;8.494;2023-01-01T09:29:02;100288.81;;;16.64;58.01
16355;BME280;8287;51.644;8.494;2023-01-01T09:31:29;100296.56;;;16.84;57.41
16355;BME280;8287;51.644;8.494;2023-01-01T09:33:55;100297.03;;;16.86;57.08
16355;BME280;8287;51.644;8.494;2023-01-01T09:36:27;100307.78;;;16.74;58.22
16355;BME280;8287;51.644;8.494;2023-01-01T09:38:54;100297.09;;;16.74;57.78
16355;BME280;8287;51.644;8.494;2023-01-01T09:41:31;100306.34;;;16.77;57.97
16355;BME280;8287;51.644;8.494;2023-01-01T09:44:07;100310.13;;;16.76;58.01
16355;BME280;8287;51.644;8.494;2023-01-01T09:46:35;100318.78;;;16.70;58.85
16355;BME280;8287;51.644;8.494;2023-01-01T09:49:05;100323.44;;;16.73;58.60
16355;BME280;8287;51.644;8.494;2023-01-01T09:51:39;100340.69;;;16.75;58.57
16355;BME280;8287;51.644;8.494;2023-01-01T09:54:10;100341.13;;;16.77;58.26
16355;BME280;8287;51.644;8.494;2023-01-01T09:56:42;100349.66;;;16.82;58.54
16355;BME280;8287;51.644;8.494;2023-01-01T09:59:12;100335.72;;;16.89;58.69
16355;BME280;8287;51.644;8.494;2023-01-01T10:01:44;100328.78;;;16.88;58.42
16355;BME280;8287;51.644;8.494;2023-01-01T10:04:32;100343.09;;;16.80;58.62
16355;BME280;8287;51.644;8.494;2023-01-01T10:07:12;100330.69;;;16.72;59.06
16355;BME280;8287;51.644;8.494;2023-01-01T10:09:47;100337.09;;;16.83;58.89
16355;BME280;8287;51.644;8.494;2023-01-01T10:12:20;100332.06;;;16.66;59.53
16355;BME280;8287;51.644;8.494;2023-01-01T10:14:56;100339.56;;;16.76;59.36
16355;BME280;8287;51.644;8.494;2023-01-01T10:17:31;100333.47;;;16.91;58.89
16355;BME280;8287;51.644;8.494;2023-01-01T10:20:03;100341.81;;;16.89;59.25
16355;BME280;8287;51.644;8.494;2023-01-01T10:22:35;100329.66;;;16.92;59.09
16355;BME280;8287;51.644;8.494;2023-01-01T10:25:07;100331.38;;;17.00;59.00
16355;BME280;8287;51.644;8.494;2023-01-01T10:27:43;100328.78;;;16.88;58.85
16355;BME280;8287;51.644;8.494;2023-01-01T10:30:15;100329.03;;;16.98;58.99
16355;BME280;8287;51.644;8.494;2023-01-01T10:32:46;100323.78;;;17.02;58.89
16355;BME280;8287;51.644;8.494;2023-01-01T10:35:15;100334.66;;;17.09;58.78
16355;BME280;8287;51.644;8.494;2023-01-01T10:37:42;100333.97;;;17.12;58.58
16355;BME280;8287;51.644;8.494;2023-01-01T10:40:15;100343.03;;;17.07;58.86
16355;BME280;8287;51.644;8.494;2023-01-01T10:42:46;100345.53;;;17.16;58.28
16355;BME280;8287;51.644;8.494;2023-01-01T10:45:16;100347.97;;;17.05;59.04
16355;BME280;8287;51.644;8.494;2023-01-01T10:48:11;100356.59;;;17.14;58.44
16355;BME280;8287;51.644;8.494;2023-01-01T10:50:41;100341.66;;;17.13;58.74
16355;BME280;8287;51.644;8.494;2023-01-01T10:53:19;100337.59;;;17.04;58.71
16355;BME280;8287;51.644;8.494;2023-01-01T10:55:48;100331.78;;;17.17;58.30
16355;BME280;8287;51.644;8.494;2023-01-01T10:58:25;100343.19;;;17.14;58.26
16355;BME280;8287;51.644;8.494;2023-01-01T11:01:01;100342.88;;;17.16;58.65
16355;BME280;8287;51.644;8.494;2023-01-01T11:03:28;100334.16;;;17.03;58.76
16355;BME280;8287;51.644;8.494;2023-01-01T11:08:48;100324.88;;;17.16;58.46
16355;BME280;8287;51.644;8.494;2023-01-01T11:11:25;100331.03;;;17.17;58.09
16355;BME280;8287;51.644;8.494;2023-01-01T11:13:54;100337.94;;;17.18;58.29
16355;BME280;8287;51.644;8.494;2023-01-01T11:16:23;100339.91;;;17.21;58.66
16355;BME280;8287;51.644;8.494;2023-01-01T11:18:50;100330.31;;;17.20;58.21
16355;BME280;8287;51.644;8.494;2023-01-01T11:21:19;100312.69;;;17.19;58.38
16355;BME280;8287;51.644;8.494;2023-01-01T11:23:48;100314.00;;;17.25;57.86
16355;BME280;8287;51.644;8.494;2023-01-01T11:26:21;100321.75;;;17.30;58.67
16355;BME280;8287;51.644;8.494;2023-01-01T11:29:02;100318.22;;;17.26;58.46
16355;BME280;8287;51.644;8.494;2023-01-01T11:31:34;100310.63;;;17.28;58.46
16355;BME280;8287;51.644;8.494;2023-01-01T11:34:02;100323.00;;;17.17;58.47
16355;BME280;8287;51.644;8.494;2023-01-01T11:36:31;100316.97;;;17.04;58.57
16355;BME280;8287;51.644;8.494;2023-01-01T11:39:13;100319.00;;;17.11;58.82
16355;BME280;8287;51.644;8.494;2023-01-01T11:41:46;100322.41;;;17.08;58.57
16355;BME280;8287;51.644;8.494;2023-01-01T11:44:26;100316.75;;;17.28;58.16
16355;BME280;8287;51.644;8.494;2023-01-01T11:46:57;100318.72;;;17.31;57.90
16355;BME280;8287;51.644;8.494;2023-01-01T11:49:27;100326.72;;;17.12;58.72
16355;BME280;8287;51.644;8.494;2023-01-01T11:51:55;100335.50;;;17.13;58.97
16355;BME280;8287;51.644;8.494;2023-01-01T11:54:24;100333.41;;;17.22;59.20
16355;BME280;8287;51.644;8.494;2023-01-01T11:56:59;100357.09;;;17.20;58.61
16355;BME280;8287;51.644;8.494;2023-01-01T11:59:29;100361.91;;;17.30;58.72
16355;BME280;8287;51.644;8.494;2023-01-01T12:02:03;100371.88;;;17.29;58.54
16355;BME280;8287;51.644;8.494;2023-01-01T12:04:35;100370.25;;;17.25;59.08
16355;BME280;8287;51.644;8.494;2023-01-01T12:07:05;100375.50;;;17.21;58.76
16355;BME280;8287;51.644;8.494;2023-01-01T12:09:37;100373.75;;;17.29;58.68
16355;BME280;8287;51.644;8.494;2023-01-01T12:12:10;100366.53;;;17.14;58.62
16355;BME280;8287;51.644;8.494;2023-01-01T12:14:42;100387.16;;;17.29;58.90
16355;BME280;8287;51.644;8.494;2023-01-01T12:17:16;100378.09;;;17.18;58.85
16355;BME280;8287;51.644;8.494;2023-01-01T12:19:51;100389.41;;;17.27;59.28
16355;BME280;8287;51.644;8.494;2023-01-01T12:22:21;100378.81;;;17.15;59.52
16355;BME280;8287;51.644;8.494;2023-01-01T12:24:48;100388.63;;;17.26;59.27
16355;BME280;8287;51.644;8.494;2023-01-01T12:27:20;100380.78;;;17.18;59.00
16355;BME280;8287;51.644;8.494;2023-01-01T12:29:59;100395.22;;;16.98;59.54
16355;BME280;8287;51.644;8.494;2023-01-01T12:32:38;100386.81;;;16.99;59.83
16355;BME280;8287;51.644;8.494;2023-01-01T12:35:13;100383.72;;;16.97;60.02
16355;BME280;8287;51.644;8.494;2023-01-01T12:37:50;100388.91;;;17.06;59.55
16355;BME280;8287;51.644;8.494;2023-01-01T12:40:37;100386.38;;;17.13;59.62
16355;BME280;8287;51.644;8.494;2023-01-01T12:43:07;100383.03;;;17.16;59.70
16355;BME280;8287;51.644;8.494;2023-01-01T12:46:03;100375.41;;;17.18;59.82
16355;BME280;8287;51.644;8.494;2023-01-01T12:49:14;100362.66;;;17.11;59.99
16355;BME280;8287;51.644;8.494;2023-01-01T12:51:47;100366.53;;;17.14;60.28
16355;BME280;8287;51.644;8.494;2023-01-01T12:54:35;100358.41;;;17.10;60.10
16355;BME280;8287;51.644;8.494;2023-01-01T12:57:08;100358.41;;;17.10;60.46
16355;BME280;8287;51.644;8.494;2023-01-01T12:59:41;100368.53;;;17.01;60.43
16355;BME280;8287;51.644;8.494;2023-01-01T13:02:12;100353.66;;;17.04;60.19
16355;BME280;8287;51.644;8.494;2023-01-01T13:04:42;100360.56;;;17.05;60.21
16355;BME280;8287;51.644;8.494;2023-01-01T13:07:11;100358.34;;;17.07;60.60
16355;BME280;8287;51.644;8.494;2023-01-01T13:09:41;100357.28;;;16.96;60.71
16355;BME280;8287;51.644;8.494;2023-01-01T13:12:12;100364.88;;;16.94;60.69
16355;BME280;8287;51.644;8.494;2023-01-01T13:14:41;100363.41;;;16.96;60.88
16355;BME280;8287;51.644;8.494;2023-01-01T13:17:17;100359.94;;;16.96;61.16
16355;BME280;8287;51.644;8.494;2023-01-01T13:19:47;100366.00;;;16.93;61.10
16355;BME280;8287;51.644;8.494;2023-01-01T13:22:36;100360.41;;;16.98;60.87